createdAt,value
2022-11-09T00:01:31.848Z,98736.52
2022-11-09T00:06:35.199Z,98740.58
2022-11-09T00:11:43.407Z,98737.16
2022-11-09T00:16:45.557Z,98737.58
2022-11-09T00:21:47.418Z,98734.88
2022-11-09T00:26:49.515Z,98733.88
2022-11-09T00:31:51.437Z,98734.98
2022-11-09T00:36:55.939Z,98727.96
2022-11-09T00:41:57.734Z,98731.66
2022-11-09T00:46:59.515Z,98732.02
2022-11-09T00:52:01.378Z,98725.94
2022-11-09T00:57:03.268Z,98725.17
2022-11-09T01:02:05.468Z,98728.92
2022-11-09T01:07:09.563Z,98732.23
2022-11-09T01:12:11.892Z,98735.80
2022-11-09T01:17:13.790Z,98730.88
2022-11-09T01:22:16.566Z,98729.04
2022-11-09T01:27:18.489Z,98722.98
2022-11-09T01:32:20.308Z,98724.02
2022-11-09T01:37:22.154Z,98713.17
2022-11-09T01:42:27.312Z,98705.63
2022-11-09T01:47:29.691Z,98703.19
2022-11-09T01:52:36.495Z,98699.98
2022-11-09T01:57:51.880Z,98704.66
2022-11-09T02:02:58.949Z,98702.39
2022-11-09T02:08:05.513Z,98697.39
2022-11-09T02:13:09.905Z,98694.09
2022-11-09T02:18:12.726Z,98698.46
2022-11-09T02:23:14.906Z,98699.65
2022-11-09T02:28:17.868Z,98695.08
2022-11-09T02:33:20.304Z,98698.54
2022-11-09T02:38:22.829Z,98698.03
2022-11-09T02:43:24.748Z,98696.65
2022-11-09T02:48:26.847Z,98694.59
2022-11-09T02:53:28.865Z,98696.79
2022-11-09T02:58:30.816Z,98698.94
2022-11-09T03:03:33.115Z,98695.76
2022-11-09T03:08:35.057Z,98695.98
2022-11-09T03:13:37.021Z,98696.16
2022-11-09T03:18:40.293Z,98692.65
2022-11-09T03:23:42.869Z,98689.98
2022-11-09T03:28:45.033Z,98681.73
2022-11-09T03:33:47.493Z,98678.67
2022-11-09T03:38:49.791Z,98674.91
2022-11-09T03:43:51.847Z,98671.33
2022-11-09T03:48:53.751Z,98673.49
2022-11-09T03:53:55.697Z,98669.95
2022-11-09T03:58:57.595Z,98665.45
2022-11-09T04:03:59.610Z,98658.36
2022-11-09T04:09:01.460Z,98661.80
2022-11-09T04:14:03.370Z,98655.27
2022-11-09T04:19:05.250Z,98654.59
2022-11-09T04:24:07.235Z,98647.43
2022-11-09T04:29:11.022Z,98644.41
2022-11-09T04:34:12.938Z,98643.90
2022-11-09T04:39:14.830Z,98641.45
2022-11-09T04:44:16.713Z,98644.39
2022-11-09T04:49:18.533Z,98645.61
2022-11-09T04:54:20.893Z,98647.02
2022-11-09T04:59:22.856Z,98642.67
2022-11-09T05:04:24.700Z,98640.20
2022-11-09T05:09:26.621Z,98645.80
2022-11-09T05:14:28.519Z,98647.83
2022-11-09T05:19:30.306Z,98658.70
2022-11-09T05:24:32.234Z,98656.13
2022-11-09T05:29:34.148Z,98657.35
2022-11-09T05:34:35.981Z,98663.70
2022-11-09T05:39:37.781Z,98666.73
2022-11-09T05:44:39.616Z,98672.37
2022-11-09T05:49:41.440Z,98677.09
2022-11-09T05:54:43.258Z,98676.44
2022-11-09T05:59:45.735Z,98679.89
2022-11-09T06:04:47.643Z,98683.13
2022-11-09T06:09:49.489Z,98677.52
2022-11-09T06:14:51.462Z,98680.27
2022-11-09T06:19:53.350Z,98682.61
2022-11-09T06:24:55.144Z,98689.21
2022-11-09T06:29:57.034Z,98699.58
2022-11-09T06:34:58.886Z,98700.05
2022-11-09T06:40:00.752Z,98689.77
2022-11-09T06:45:02.624Z,98690.15
2022-11-09T06:50:04.818Z,98687.24
2022-11-09T06:55:08.369Z,98684.27
2022-11-09T07:00:11.167Z,98684.91
2022-11-09T07:05:13.259Z,98683.88
2022-11-09T07:10:15.548Z,98682.50
2022-11-09T07:15:18.723Z,98680.92
2022-11-09T07:20:20.635Z,98671.65
2022-11-09T07:25:22.498Z,98667.70
2022-11-09T07:30:24.413Z,98665.86
2022-11-09T07:35:27.239Z,98672.36
2022-11-09T07:40:30.048Z,98670.41
2022-11-09T07:45:34.236Z,98661.73
2022-11-09T07:50:37.575Z,98669.17
2022-11-09T07:55:39.748Z,98671.17
2022-11-09T08:00:43.139Z,98673.52
2022-11-09T08:05:45.313Z,98679.67
2022-11-09T08:10:51.587Z,98678.42
2022-11-09T08:15:53.435Z,98676.92
2022-11-09T08:20:55.792Z,98675.02
2022-11-09T08:25:57.929Z,98674.98
2022-11-09T08:31:02.667Z,98667.64
2022-11-09T08:36:13.068Z,98669.52
2022-11-09T08:41:15.184Z,98671.09
2022-11-09T08:46:17.093Z,98668.86
2022-11-09T08:51:19.464Z,98666.11
2022-11-09T08:56:21.364Z,98665.54
2022-11-09T09:01:25.375Z,98669.25
2022-11-09T09:06:31.112Z,98677.80
2022-11-09T09:11:33.441Z,98676.20
2022-11-09T09:16:35.395Z,98678.42
2022-11-09T09:21:37.216Z,98679.15
2022-11-09T09:26:39.290Z,98679.40
2022-11-09T09:31:41.818Z,98687.71
2022-11-09T09:36:48.018Z,98685.29
2022-11-09T09:41:58.526Z,98687.02
2022-11-09T09:47:18.827Z,98686.83
2022-11-09T09:52:39.499Z,98683.68
2022-11-09T09:57:46.833Z,98683.80
2022-11-09T10:02:49.633Z,98684.25
2022-11-09T10:08:16.220Z,98680.96
2022-11-09T10:13:30.134Z,98679.65
2022-11-09T10:18:50.746Z,98681.69
2022-11-09T10:24:36.931Z,98672.17
2022-11-09T10:29:48.876Z,98670.32
2022-11-09T10:34:53.835Z,98658.64
2022-11-09T10:40:11.965Z,98658.36
2022-11-09T10:45:37.565Z,98654.94
2022-11-09T10:50:58.468Z,98657.66
2022-11-09T10:56:22.022Z,98655.29
2022-11-09T11:01:43.162Z,98654.44
2022-11-09T11:07:20.565Z,98646.31
2022-11-09T11:13:02.167Z,98645.93
2022-11-09T11:18:27.292Z,98652.84
2022-11-09T11:24:29.987Z,98655.83
2022-11-09T11:30:28.780Z,98654.95
2022-11-09T11:35:55.114Z,98654.17
2022-11-09T11:41:51.181Z,98650.20
2022-11-09T11:47:25.014Z,98652.51
2022-11-09T11:53:06.882Z,98650.16
2022-11-09T11:58:46.592Z,98647.21
2022-11-09T12:04:40.465Z,98652.25
2022-11-09T12:10:22.669Z,98651.72
2022-11-09T12:16:02.814Z,98649.71
2022-11-09T12:21:37.424Z,98647.94
2022-11-09T12:27:30.850Z,98637.99
2022-11-09T12:33:12.557Z,98637.73
2022-11-09T12:38:54.980Z,98636.65
2022-11-09T12:44:29.120Z,98632.16
2022-11-09T12:49:49.920Z,98623.01
2022-11-09T12:55:21.214Z,98620.02
2022-11-09T13:00:44.480Z,98633.46
2022-11-09T13:06:14.376Z,98629.70
2022-11-09T13:11:39.236Z,98634.85
2022-11-09T13:17:02.139Z,98638.15
2022-11-09T13:22:25.606Z,98640.47
2022-11-09T13:27:50.718Z,98642.62
2022-11-09T13:33:26.133Z,98647.66
2022-11-09T13:39:07.771Z,98651.40
2022-11-09T13:44:32.889Z,98653.91
2022-11-09T13:49:57.787Z,98646.27
2022-11-09T13:55:24.455Z,98649.89
2022-11-09T14:00:47.015Z,98651.14
2022-11-09T14:06:12.655Z,98658.45
2022-11-09T14:11:50.372Z,98670.13
2022-11-09T14:17:23.742Z,98668.17
2022-11-09T14:22:44.806Z,98669.85
2022-11-09T14:28:22.663Z,98668.67
2022-11-09T14:33:43.328Z,98668.11
2022-11-09T14:39:06.713Z,98669.80
2022-11-09T14:44:35.915Z,98668.79
2022-11-09T14:49:57.386Z,98652.42
2022-11-09T14:55:20.327Z,98655.26
2022-11-09T15:00:45.829Z,98653.92
2022-11-09T15:06:10.005Z,98655.15
2022-11-09T15:11:37.726Z,98661.48
2022-11-09T15:17:08.161Z,98667.42
2022-11-09T15:22:58.667Z,98663.71
2022-11-09T15:28:21.966Z,98660.06
2022-11-09T15:33:53.187Z,98663.45
2022-11-09T15:39:19.395Z,98657.34
2022-11-09T15:44:40.115Z,98659.41
2022-11-09T15:50:04.218Z,98654.41
2022-11-09T15:55:25.340Z,98651.67
2022-11-09T16:00:46.627Z,98650.91
2022-11-09T16:06:10.893Z,98655.27
2022-11-09T16:11:31.538Z,98648.89
2022-11-09T16:16:52.132Z,98643.72
2022-11-09T16:22:12.587Z,98650.92
2022-11-09T16:27:50.641Z,98650.70
2022-11-09T16:33:12.329Z,98655.04
2022-11-09T16:38:40.059Z,98660.45
2022-11-09T16:44:00.614Z,98672.42
2022-11-09T16:49:21.043Z,98677.13
2022-11-09T16:54:41.400Z,98675.90
2022-11-09T17:00:02.350Z,98679.70
2022-11-09T17:05:22.768Z,98683.86
2022-11-09T17:10:45.815Z,98677.65
2022-11-09T17:16:12.830Z,98682.13
2022-11-09T17:21:33.456Z,98679.41
2022-11-09T17:26:54.115Z,98682.61
2022-11-09T17:32:14.702Z,98681.89
2022-11-09T17:37:35.235Z,98686.40
2022-11-09T17:42:57.155Z,98678.38
2022-11-09T17:48:18.299Z,98679.60
2022-11-09T17:53:39.570Z,98668.11
2022-11-09T17:58:59.998Z,98667.84
2022-11-09T18:04:20.688Z,98669.42
2022-11-09T18:09:42.584Z,98674.52
2022-11-09T18:15:04.326Z,98675.02
2022-11-09T18:20:25.598Z,98678.30
2022-11-09T18:25:57.188Z,98677.95
2022-11-09T18:31:17.503Z,98673.77
2022-11-09T18:36:38.254Z,98671.24
2022-11-09T18:42:00.440Z,98665.42
2022-11-09T18:47:21.343Z,98671.94
2022-11-09T18:52:42.022Z,98668.30
2022-11-09T18:58:02.574Z,98674.73
2022-11-09T19:03:23.408Z,98680.64
2022-11-09T19:09:03.401Z,98688.77
2022-11-09T19:14:23.704Z,98692.86
2022-11-09T19:19:44.560Z,98694.09
2022-11-09T19:25:05.670Z,98691.81
2022-11-09T19:30:26.086Z,98700.27
2022-11-09T19:36:15.181Z,98704.70
2022-11-09T19:41:32.070Z,98708.95
2022-11-09T19:46:52.663Z,98702.39
2022-11-09T19:52:13.405Z,98697.96
2022-11-09T19:57:34.227Z,98700.72
2022-11-09T20:02:54.633Z,98697.33
2022-11-09T20:08:15.160Z,98695.63
2022-11-09T20:13:38.176Z,98702.68
2022-11-09T20:18:58.944Z,98710.16
2022-11-09T20:24:19.524Z,98717.20
2022-11-09T20:29:39.923Z,98719.52
2022-11-09T20:35:00.755Z,98728.57
2022-11-09T20:40:21.347Z,98728.80
2022-11-09T20:45:41.804Z,98727.77
2022-11-09T20:51:07.265Z,98722.63
2022-11-09T20:56:28.222Z,98729.96
2022-11-09T21:01:48.930Z,98726.36
2022-11-09T21:07:09.501Z,98728.83
2022-11-09T21:12:30.253Z,98728.79
2022-11-09T21:17:51.105Z,98735.92
2022-11-09T21:23:12.240Z,98732.80
2022-11-09T21:28:51.667Z,98733.65
2022-11-09T21:34:12.153Z,98738.61
2022-11-09T21:39:33.443Z,98740.60
2022-11-09T21:44:54.159Z,98739.33
2022-11-09T21:50:14.652Z,98745.67
2022-11-09T21:55:35.072Z,98757.91
2022-11-09T22:00:59.557Z,98763.72
2022-11-09T22:06:21.164Z,98750.98
2022-11-09T22:12:04.854Z,98729.45
2022-11-09T22:17:25.400Z,98741.70
2022-11-09T22:22:45.921Z,98750.83
2022-11-09T22:28:06.722Z,98747.25
2022-11-09T22:33:27.818Z,98753.75
2022-11-09T22:38:48.504Z,98765.27
2022-11-09T22:44:08.698Z,98758.88
2022-11-09T22:49:29.414Z,98767.34
2022-11-09T22:54:50.136Z,98771.71
2022-11-09T23:00:14.184Z,98767.15
2022-11-09T23:05:34.849Z,98778.30
2022-11-09T23:10:56.430Z,98779.05
2022-11-09T23:16:17.149Z,98784.27
2022-11-09T23:21:37.737Z,98783.99
2022-11-09T23:26:58.419Z,98778.87
2022-11-09T23:32:18.613Z,98790.39
2022-11-09T23:37:39.554Z,98791.94
2022-11-09T23:43:05.919Z,98795.46
2022-11-09T23:48:26.613Z,98790.30
2022-11-09T23:53:46.996Z,98786.14
2022-11-09T23:59:07.210Z,98782.35
